sensor_id;sensor_type;location;lat;lon;timestamp;temperature;humidity
4964;DHT22;2497;47.410;9.740;2023-07-22T00:00:00;15.70;99.90
4964;DHT22;2497;47.410;9.740;2023-07-22T00:02:29;15.70;99.90
4964;DHT22;2497;47.410;9.740;2023-07-22T00:04:56;15.70;99.90
4964;DHT22;2497;47.410;9.740;2023-07-22T00:07:23;15.70;99.90
4964;DHT22;2497;47.410;9.740;2023-07-22T00:09:50;15.70;99.90
4964;DHT22;2497;47.410;9.740;2023-07-22T00:12:18;15.70;99.90
4964;DHT22;2497;47.410;9.740;2023-07-22T00:14:48;15.70;99.90
4964;DHT22;2497;47.410;9.740;2023-07-22T00:17:16;15.70;99.90
4964;DHT22;2497;47.410;9.740;2023-07-22T00:19:43;15.70;99.90
4964;DHT22;2497;47.410;9.740;2023-07-22T00:22:10;15.60;99.90
4964;DHT22;2497;47.410;9.740;2023-07-22T00:24:40;15.60;99.90
4964;DHT22;2497;47.410;9.740;2023-07-22T00:27:07;15.50;99.90
4964;DHT22;2497;47.410;9.740;2023-07-22T00:29:35;15.50;99.90
4964;DHT22;2497;47.410;9.740;2023-07-22T00:32:05;15.50;99.90
4964;DHT22;2497;47.410;9.740;2023-07-22T00:34:37;15.40;99.90
4964;DHT22;2497;47.410;9.740;2023-07-22T00:37:04;15.50;99.90
4964;DHT22;2497;47.410;9.740;2023-07-22T00:39:32;15.50;99.90
4964;DHT22;2497;47.410;9.740;2023-07-22T00:41:59;15.50;99.90
4964;DHT22;2497;47.410;9.740;2023-07-22T00:44:27;15.50;99.90
4964;DHT22;2497;47.410;9.740;2023-07-22T00:46:56;15.50;99.90
4964;DHT22;2497;47.410;9.740;2023-07-22T00:49:26;15.40;99.90
4964;DHT22;2497;47.410;9.740;2023-07-22T00:51:55;15.30;99.90
4964;DHT22;2497;47.410;9.740;2023-07-22T00:54:23;15.30;99.90
4964;DHT22;2497;47.410;9.740;2023-07-22T00:56:50;15.20;99.90
4964;DHT22;2497;47.410;9.740;2023-07-22T00:59:18;15.20;99.90
4964;DHT22;2497;47.410;9.740;2023-07-22T01:01:47;15.10;99.90
4964;DHT22;2497;47.410;9.740;2023-07-22T01:04:15;15.10;99.90
4964;DHT22;2497;47.410;9.740;2023-07-22T01:06:44;15.10;99.90
4964;DHT22;2497;47.410;9.740;2023-07-22T01:09:12;15.10;99.90
4964;DHT22;2497;47.410;9.740;2023-07-22T01:11:40;15.10;99.90
4964;DHT22;2497;47.410;9.740;2023-07-22T01:14:10;15.10;99.90
4964;DHT22;2497;47.410;9.740;2023-07-22T01:16:40;15.00;99.90
4964;DHT22;2497;47.410;9.740;2023-07-22T01:19:11;15.00;99.90
4964;DHT22;2497;47.410;9.740;2023-07-22T01:21:41;15.00;99.90
4964;DHT22;2497;47.410;9.740;2023-07-22T01:24:12;14.90;99.90
4964;DHT22;2497;47.410;9.740;2023-07-22T01:26:39;15.00;99.90
4964;DHT22;2497;47.410;9.740;2023-07-22T01:29:07;15.00;99.90
4964;DHT22;2497;47.410;9.740;2023-07-22T01:31:35;15.00;99.90
4964;DHT22;2497;47.410;9.740;2023-07-22T01:34:02;15.00;99.90
4964;DHT22;2497;47.410;9.740;2023-07-22T01:36:31;15.00;99.90
4964;DHT22;2497;47.410;9.740;2023-07-22T01:38:59;15.00;99.90
4964;DHT22;2497;47.410;9.740;2023-07-22T01:41:27;15.10;99.90
4964;DHT22;2497;47.410;9.740;2023-07-22T01:43:54;15.10;99.90
4964;DHT22;2497;47.410;9.740;2023-07-22T01:46:21;15.20;99.90
4964;DHT22;2497;47.410;9.740;2023-07-22T01:48:48;15.20;99.90
4964;DHT22;2497;47.410;9.740;2023-07-22T01:51:17;15.20;99.90
4964;DHT22;2497;47.410;9.740;2023-07-22T01:53:44;15.20;99.90
4964;DHT22;2497;47.410;9.740;2023-07-22T01:56:11;15.30;99.90
4964;DHT22;2497;47.410;9.740;2023-07-22T01:58:40;15.30;99.90
4964;DHT22;2497;47.410;9.740;2023-07-22T02:01:07;15.30;99.90
4964;DHT22;2497;47.410;9.740;2023-07-22T02:03:35;15.30;99.90
4964;DHT22;2497;47.410;9.740;2023-07-22T02:06:02;15.40;99.90
4964;DHT22;2497;47.410;9.740;2023-07-22T02:08:30;15.50;99.90
4964;DHT22;2497;47.410;9.740;2023-07-22T02:11:01;15.50;99.90
4964;DHT22;2497;47.410;9.740;2023-07-22T02:13:29;15.50;99.90
4964;DHT22;2497;47.410;9.740;2023-07-22T02:15:59;15.50;99.90
4964;DHT22;2497;47.410;9.740;2023-07-22T02:18:26;15.50;99.90
4964;DHT22;2497;47.410;9.740;2023-07-22T02:20:54;15.50;99.90
4964;DHT22;2497;47.410;9.740;2023-07-22T02:23:22;15.40;99.90
4964;DHT22;2497;47.410;9.740;2023-07-22T02:25:50;15.30;99.90
4964;DHT22;2497;47.410;9.740;2023-07-22T02:28:17;15.30;99.90
4964;DHT22;2497;47.410;9.740;2023-07-22T02:30:47;15.30;99.90
4964;DHT22;2497;47.410;9.740;2023-07-22T02:33:16;15.40;99.90
4964;DHT22;2497;47.410;9.740;2023-07-22T02:35:43;15.30;99.90
4964;DHT22;2497;47.410;9.740;2023-07-22T02:38:10;15.40;99.90
4964;DHT22;2497;47.410;9.740;2023-07-22T02:40:37;15.40;99.90
4964;DHT22;2497;47.410;9.740;2023-07-22T02:43:04;15.40;99.90
4964;DHT22;2497;47.410;9.740;2023-07-22T02:45:32;15.40;99.90
4964;DHT22;2497;47.410;9.740;2023-07-22T02:48:00;15.40;99.90
4964;DHT22;2497;47.410;9.740;2023-07-22T02:50:31;15.30;99.90
4964;DHT22;2497;47.410;9.740;2023-07-22T02:52:58;15.30;99.90
4964;DHT22;2497;47.410;9.740;2023-07-22T02:55:25;15.20;99.90
4964;DHT22;2497;47.410;9.740;2023-07-22T02:57:52;15.10;99.90
4964;DHT22;2497;47.410;9.740;2023-07-22T03:00:20;15.10;99.90
4964;DHT22;2497;47.410;9.740;2023-07-22T03:02:49;15.10;99.90
4964;DHT22;2497;47.410;9.740;2023-07-22T03:05:18;15.20;99.90
4964;DHT22;2497;47.410;9.740;2023-07-22T03:07:47;15.20;99.90
4964;DHT22;2497;47.410;9.740;2023-07-22T03:10:14;15.20;99.90
4964;DHT22;2497;47.410;9.740;2023-07-22T03:12:40;15.20;99.90
4964;DHT22;2497;47.410;9.740;2023-07-22T03:15:08;15.20;99.90
4964;DHT22;2497;47.410;9.740;2023-07-22T03:17:38;15.20;99.90
4964;DHT22;2497;47.410;9.740;2023-07-22T03:20:08;15.10;99.90
4964;DHT22;2497;47.410;9.740;2023-07-22T03:22:40;15.10;99.90
4964;DHT22;2497;47.410;9.740;2023-07-22T03:25:09;15.10;99.90
4964;DHT22;2497;47.410;9.740;2023-07-22T03:27:36;15.00;99.90
4964;DHT22;2497;47.410;9.740;2023-07-22T03:30:04;15.00;99.90
4964;DHT22;2497;47.410;9.740;2023-07-22T03:32:33;14.90;99.90
4964;DHT22;2497;47.410;9.740;2023-07-22T03:35:01;15.00;99.90
4964;DHT22;2497;47.410;9.740;2023-07-22T03:37:28;14.90;99.90
4964;DHT22;2497;47.410;9.740;2023-07-22T03:39:55;15.00;99.90
4964;DHT22;2497;47.410;9.740;2023-07-22T03:42:23;15.10;99.90
4964;DHT22;2497;47.410;9.740;2023-07-22T03:44:51;15.10;99.90
4964;DHT22;2497;47.410;9.740;2023-07-22T03:47:19;15.10;99.90
4964;DHT22;2497;47.410;9.740;2023-07-22T03:49:50;15.00;99.90
4964;DHT22;2497;47.410;9.740;2023-07-22T03:52:17;15.10;99.90
4964;DHT22;2497;47.410;9.740;2023-07-22T03:54:44;15.00;99.90
4964;DHT22;2497;47.410;9.740;2023-07-22T03:57:11;14.90;99.90
4964;DHT22;2497;47.410;9.740;2023-07-22T03:59:40;14.90;99.90
4964;DHT22;2497;47.410;9.740;2023-07-22T04:02:07;15.00;99.90
4964;DHT22;2497;47.410;9.740;2023-07-22T04:04:36;15.00;99.90
4964;DHT22;2497;47.410;9.740;2023-07-22T04:07:05;15.00;99.90
4964;DHT22;2497;47.410;9.740;2023-07-22T04:09:36;15.10;99.90
4964;DHT22;2497;47.410;9.740;2023-07-22T04:12:08;15.10;99.90
4964;DHT22;2497;47.410;9.740;2023-07-22T04:14:35;15.10;99.90
4964;DHT22;2497;47.410;9.740;2023-07-22T04:17:04;15.00;99.90
4964;DHT22;2497;47.410;9.740;2023-07-22T04:19:31;15.00;99.90
4964;DHT22;2497;47.410;9.740;2023-07-22T04:21:58;15.10;99.90
4964;DHT22;2497;47.410;9.740;2023-07-22T04:24:29;15.20;99.90
4964;DHT22;2497;47.410;9.740;2023-07-22T04:26:58;15.20;99.90
4964;DHT22;2497;47.410;9.740;2023-07-22T04:29:25;15.30;99.90
4964;DHT22;2497;47.410;9.740;2023-07-22T04:31:57;15.30;99.90
4964;DHT22;2497;47.410;9.740;2023-07-22T04:34:29;15.30;99.90
4964;DHT22;2497;47.410;9.740;2023-07-22T04:36:57;15.30;99.90
4964;DHT22;2497;47.410;9.740;2023-07-22T04:39:25;15.30;99.90
4964;DHT22;2497;47.410;9.740;2023-07-22T04:41:53;15.30;99.90
4964;DHT22;2497;47.410;9.740;2023-07-22T04:44:22;15.20;99.90
4964;DHT22;2497;47.410;9.740;2023-07-22T04:46:49;15.30;99.90
4964;DHT22;2497;47.410;9.740;2023-07-22T04:49:16;15.40;99.90
4964;DHT22;2497;47.410;9.740;2023-07-22T04:51:48;15.50;99.90
4964;DHT22;2497;47.410;9.740;2023-07-22T04:54:15;15.50;99.90
4964;DHT22;2497;47.410;9.740;2023-07-22T04:56:43;15.60;99.90
4964;DHT22;2497;47.410;9.740;2023-07-22T04:59:13;15.60;99.90
4964;DHT22;2497;47.410;9.740;2023-07-22T05:01:44;15.70;99.90
4964;DHT22;2497;47.410;9.740;2023-07-22T05:04:11;15.70;99.90
4964;DHT22;2497;47.410;9.740;2023-07-22T05:06:39;15.70;99.90
4964;DHT22;2497;47.410;9.740;2023-07-22T05:09:07;15.60;99.90
4964;DHT22;2497;47.410;9.740;2023-07-22T05:11:34;15.50;99.90
4964;DHT22;2497;47.410;9.740;2023-07-22T05:14:01;15.50;99.90
4964;DHT22;2497;47.410;9.740;2023-07-22T05:16:29;15.50;99.90
4964;DHT22;2497;47.410;9.740;2023-07-22T05:18:57;15.50;99.90
4964;DHT22;2497;47.410;9.740;2023-07-22T05:21:24;15.50;99.90
4964;DHT22;2497;47.410;9.740;2023-07-22T05:23:51;15.50;99.90
4964;DHT22;2497;47.410;9.740;2023-07-22T05:26:20;15.50;99.90
4964;DHT22;2497;47.410;9.740;2023-07-22T05:28:47;15.60;99.90
4964;DHT22;2497;47.410;9.740;2023-07-22T05:31:14;15.70;99.90
4964;DHT22;2497;47.410;9.740;2023-07-22T05:33:42;15.60;99.90
4964;DHT22;2497;47.410;9.740;2023-07-22T05:36:09;15.70;99.90
4964;DHT22;2497;47.410;9.740;2023-07-22T05:38:39;15.70;99.90
4964;DHT22;2497;47.410;9.740;2023-07-22T05:41:06;15.80;99.90
4964;DHT22;2497;47.410;9.740;2023-07-22T05:43:34;15.90;99.90
4964;DHT22;2497;47.410;9.740;2023-07-22T05:46:02;15.90;99.90
4964;DHT22;2497;47.410;9.740;2023-07-22T05:48:29;16.00;99.90
4964;DHT22;2497;47.410;9.740;2023-07-22T05:50:58;16.00;99.90
4964;DHT22;2497;47.410;9.740;2023-07-22T05:53:25;16.00;99.90
4964;DHT22;2497;47.410;9.740;2023-07-22T05:55:52;16.10;99.90
4964;DHT22;2497;47.410;9.740;2023-07-22T05:58:19;16.00;99.90
4964;DHT22;2497;47.410;9.740;2023-07-22T06:00:47;16.00;99.90
4964;DHT22;2497;47.410;9.740;2023-07-22T06:03:17;16.00;99.90
4964;DHT22;2497;47.410;9.740;2023-07-22T06:05:44;16.10;99.90
4964;DHT22;2497;47.410;9.740;2023-07-22T06:08:11;16.10;99.90
4964;DHT22;2497;47.410;9.740;2023-07-22T06:10:39;16.20;99.90
4964;DHT22;2497;47.410;9.740;2023-07-22T06:13:06;16.20;99.90
4964;DHT22;2497;47.410;9.740;2023-07-22T06:15:33;16.20;99.90
4964;DHT22;2497;47.410;9.740;2023-07-22T06:18:01;16.20;99.90
4964;DHT22;2497;47.410;9.740;2023-07-22T06:20:28;16.40;99.90
4964;DHT22;2497;47.410;9.740;2023-07-22T06:22:56;16.40;99.90
4964;DHT22;2497;47.410;9.740;2023-07-22T06:25:23;16.40;99.90
4964;DHT22;2497;47.410;9.740;2023-07-22T06:27:50;16.40;99.90
4964;DHT22;2497;47.410;9.740;2023-07-22T06:30:19;16.40;99.90
4964;DHT22;2497;47.410;9.740;2023-07-22T06:32:46;16.50;99.90
4964;DHT22;2497;47.410;9.740;2023-07-22T06:35:15;16.50;99.90
4964;DHT22;2497;47.410;9.740;2023-07-22T06:37:42;16.50;99.90
4964;DHT22;2497;47.410;9.740;2023-07-22T06:40:09;16.50;99.90
4964;DHT22;2497;47.410;9.740;2023-07-22T06:42:36;16.70;99.90
4964;DHT22;2497;47.410;9.740;2023-07-22T06:45:06;16.80;99.90
4964;DHT22;2497;47.410;9.740;2023-07-22T06:47:33;16.70;99.90
4964;DHT22;2497;47.410;9.740;2023-07-22T06:50:00;16.70;99.90
4964;DHT22;2497;47.410;9.740;2023-07-22T06:52:31;16.60;99.90
4964;DHT22;2497;47.410;9.740;2023-07-22T06:54:58;16.70;99.90
4964;DHT22;2497;47.410;9.740;2023-07-22T06:57:25;16.70;99.90
4964;DHT22;2497;47.410;9.740;2023-07-22T06:59:53;16.70;99.90
4964;DHT22;2497;47.410;9.740;2023-07-22T07:02:21;16.90;99.90
4964;DHT22;2497;47.410;9.740;2023-07-22T07:04:48;17.00;99.90
4964;DHT22;2497;47.410;9.740;2023-07-22T07:07:15;17.10;99.90
4964;DHT22;2497;47.410;9.740;2023-07-22T07:09:44;17.20;99.90
4964;DHT22;2497;47.410;9.740;2023-07-22T07:12:12;17.20;99.90
4964;DHT22;2497;47.410;9.740;2023-07-22T07:14:40;17.40;99.90
4964;DHT22;2497;47.410;9.740;2023-07-22T07:17:07;17.40;99.90
4964;DHT22;2497;47.410;9.740;2023-07-22T07:19:37;17.50;99.90
4964;DHT22;2497;47.410;9.740;2023-07-22T07:22:04;17.50;99.90
4964;DHT22;2497;47.410;9.740;2023-07-22T07:24:32;17.40;99.90
4964;DHT22;2497;47.410;9.740;2023-07-22T07:27:00;17.50;99.90
4964;DHT22;2497;47.410;9.740;2023-07-22T07:29:27;17.50;99.90
4964;DHT22;2497;47.410;9.740;2023-07-22T07:31:54;17.60;99.90
4964;DHT22;2497;47.410;9.740;2023-07-22T07:34:21;17.60;99.90
4964;DHT22;2497;47.410;9.740;2023-07-22T07:36:50;17.80;99.90
4964;DHT22;2497;47.410;9.740;2023-07-22T07:39:17;17.90;99.90
4964;DHT22;2497;47.410;9.740;2023-07-22T07:41:44;17.90;99.90
4964;DHT22;2497;47.410;9.740;2023-07-22T07:44:15;18.10;99.90
4964;DHT22;2497;47.410;9.740;2023-07-22T07:46:42;18.30;99.90
4964;DHT22;2497;47.410;9.740;2023-07-22T07:49:09;18.40;99.90
4964;DHT22;2497;47.410;9.740;2023-07-22T07:51:36;18.40;99.90
4964;DHT22;2497;47.410;9.740;2023-07-22T07:54:03;18.50;99.90
4964;DHT22;2497;47.410;9.740;2023-07-22T07:56:32;18.60;99.90
4964;DHT22;2497;47.410;9.740;2023-07-22T07:59:01;18.60;99.90
4964;DHT22;2497;47.410;9.740;2023-07-22T08:01:29;18.60;99.90
4964;DHT22;2497;47.410;9.740;2023-07-22T08:03:59;18.70;99.90
4964;DHT22;2497;47.410;9.740;2023-07-22T08:06:26;19.00;99.90
4964;DHT22;2497;47.410;9.740;2023-07-22T08:08:53;19.00;99.90
4964;DHT22;2497;47.410;9.740;2023-07-22T08:11:20;19.00;99.90
4964;DHT22;2497;47.410;9.740;2023-07-22T08:13:48;19.20;99.90
4964;DHT22;2497;47.410;9.740;2023-07-22T08:16:16;19.20;99.90
4964;DHT22;2497;47.410;9.740;2023-07-22T08:18:47;19.30;99.90
4964;DHT22;2497;47.410;9.740;2023-07-22T08:21:15;19.40;99.90
4964;DHT22;2497;47.410;9.740;2023-07-22T08:23:42;19.50;99.90
4964;DHT22;2497;47.410;9.740;2023-07-22T08:26:14;19.50;99.90
4964;DHT22;2497;47.410;9.740;2023-07-22T08:28:46;19.60;99.90
4964;DHT22;2497;47.410;9.740;2023-07-22T08:31:13;20.00;99.90
4964;DHT22;2497;47.410;9.740;2023-07-22T08:33:44;20.10;99.90
4964;DHT22;2497;47.410;9.740;2023-07-22T08:36:11;20.30;99.90
4964;DHT22;2497;47.410;9.740;2023-07-22T08:38:38;20.20;99.90
4964;DHT22;2497;47.410;9.740;2023-07-22T08:41:05;20.10;99.90
4964;DHT22;2497;47.410;9.740;2023-07-22T08:43:36;20.20;99.90
4964;DHT22;2497;47.410;9.740;2023-07-22T08:46:07;20.30;99.90
4964;DHT22;2497;47.410;9.740;2023-07-22T08:48:34;20.30;99.90
4964;DHT22;2497;47.410;9.740;2023-07-22T08:51:06;20.40;99.90
4964;DHT22;2497;47.410;9.740;2023-07-22T08:53:40;20.40;99.90
4964;DHT22;2497;47.410;9.740;2023-07-22T08:56:07;20.20;99.90
4964;DHT22;2497;47.410;9.740;2023-07-22T08:58:36;20.50;99.90
4964;DHT22;2497;47.410;9.740;2023-07-22T09:01:03;20.60;99.90
4964;DHT22;2497;47.410;9.740;2023-07-22T09:03:30;20.60;99.90
4964;DHT22;2497;47.410;9.740;2023-07-22T09:05:58;20.20;99.90
4964;DHT22;2497;47.410;9.740;2023-07-22T09:08:26;20.10;99.90
4964;DHT22;2497;47.410;9.740;2023-07-22T09:10:54;20.00;99.90
4964;DHT22;2497;47.410;9.740;2023-07-22T09:13:22;19.90;99.90
4964;DHT22;2497;47.410;9.740;2023-07-22T09:15:51;20.20;99.90
4964;DHT22;2497;47.410;9.740;2023-07-22T09:18:18;20.30;99.90
4964;DHT22;2497;47.410;9.740;2023-07-22T09:20:45;20.60;99.90
4964;DHT22;2497;47.410;9.740;2023-07-22T09:23:13;20.80;99.90
4964;DHT22;2497;47.410;9.740;2023-07-22T09:25:42;21.10;99.90
4964;DHT22;2497;47.410;9.740;2023-07-22T09:28:10;21.00;99.90
4964;DHT22;2497;47.410;9.740;2023-07-22T09:30:38;20.80;99.90
4964;DHT22;2497;47.410;9.740;2023-07-22T09:33:19;20.90;99.90
4964;DHT22;2497;47.410;9.740;2023-07-22T09:35:48;20.90;99.90
4964;DHT22;2497;47.410;9.740;2023-07-22T09:38:22;21.00;99.90
4964;DHT22;2497;47.410;9.740;2023-07-22T09:40:51;20.90;99.90
4964;DHT22;2497;47.410;9.740;2023-07-22T09:43:22;21.00;99.90
4964;DHT22;2497;47.410;9.740;2023-07-22T09:45:49;21.30;99.90
4964;DHT22;2497;47.410;9.740;2023-07-22T09:48:16;21.10;99.90
4964;DHT22;2497;47.410;9.740;2023-07-22T09:50:44;21.20;99.90
4964;DHT22;2497;47.410;9.740;2023-07-22T09:53:15;21.20;99.90
4964;DHT22;2497;47.410;9.740;2023-07-22T09:55:42;21.10;99.90
4964;DHT22;2497;47.410;9.740;2023-07-22T09:58:14;21.10;99.90
4964;DHT22;2497;47.410;9.740;2023-07-22T10:00:47;20.80;99.90
4964;DHT22;2497;47.410;9.740;2023-07-22T10:03:16;20.90;99.90
4964;DHT22;2497;47.410;9.740;2023-07-22T10:05:46;21.40;99.90
4964;DHT22;2497;47.410;9.740;2023-07-22T10:08:18;21.70;99.90
4964;DHT22;2497;47.410;9.740;2023-07-22T10:10:45;22.40;99.90
4964;DHT22;2497;47.410;9.740;2023-07-22T10:13:14;22.90;99.90
4964;DHT22;2497;47.410;9.740;2023-07-22T10:15:42;23.10;99.90
4964;DHT22;2497;47.410;9.740;2023-07-22T10:18:09;23.50;99.90
4964;DHT22;2497;47.410;9.740;2023-07-22T10:20:38;23.70;99.90
4964;DHT22;2497;47.410;9.740;2023-07-22T10:23:07;24.00;99.90
4964;DHT22;2497;47.410;9.740;2023-07-22T10:25:35;23.70;99.90
4964;DHT22;2497;47.410;9.740;2023-07-22T10:28:04;24.00;99.90
4964;DHT22;2497;47.410;9.740;2023-07-22T10:30:34;24.20;99.90
4964;DHT22;2497;47.410;9.740;2023-07-22T10:33:01;24.10;99.90
4964;DHT22;2497;47.410;9.740;2023-07-22T10:35:40;24.40;99.90
4964;DHT22;2497;47.410;9.740;2023-07-22T10:38:09;24.70;99.90
4964;DHT22;2497;47.410;9.740;2023-07-22T10:40:45;24.60;99.90
4964;DHT22;2497;47.410;9.740;2023-07-22T10:43:15;24.90;99.90
4964;DHT22;2497;47.410;9.740;2023-07-22T10:45:51;25.50;99.90
4964;DHT22;2497;47.410;9.740;2023-07-22T10:48:19;26.00;99.90
4964;DHT22;2497;47.410;9.740;2023-07-22T10:50:48;25.80;99.90
4964;DHT22;2497;47.410;9.740;2023-07-22T10:53:21;25.80;99.90
4964;DHT22;2497;47.410;9.740;2023-07-22T10:56:05;26.00;99.90
4964;DHT22;2497;47.410;9.740;2023-07-22T10:58:35;26.80;99.90
4964;DHT22;2497;47.410;9.740;2023-07-22T11:01:24;26.80;99.90
4964;DHT22;2497;47.410;9.740;2023-07-22T11:04:10;26.80;99.90
4964;DHT22;2497;47.410;9.740;2023-07-22T11:06:39;26.90;99.90
4964;DHT22;2497;47.410;9.740;2023-07-22T11:09:07;26.70;99.90
4964;DHT22;2497;47.410;9.740;2023-07-22T11:11:55;27.10;99.90
4964;DHT22;2497;47.410;9.740;2023-07-22T11:14:23;26.60;99.90
4964;DHT22;2497;47.410;9.740;2023-07-22T11:16:52;27.00;99.90
4964;DHT22;2497;47.410;9.740;2023-07-22T11:19:21;27.40;99.90
4964;DHT22;2497;47.410;9.740;2023-07-22T11:21:51;27.90;99.90
4964;DHT22;2497;47.410;9.740;2023-07-22T11:24:19;28.50;99.90
4964;DHT22;2497;47.410;9.740;2023-07-22T11:26:49;27.90;99.90
4964;DHT22;2497;47.410;9.740;2023-07-22T11:29:16;28.20;99.90
4964;DHT22;2497;47.410;9.740;2023-07-22T11:31:45;27.90;99.90
4964;DHT22;2497;47.410;9.740;2023-07-22T11:34:16;28.50;99.90
4964;DHT22;2497;47.410;9.740;2023-07-22T11:36:45;28.70;99.90
4964;DHT22;2497;47.410;9.740;2023-07-22T11:39:14;28.70;99.90
4964;DHT22;2497;47.410;9.740;2023-07-22T11:41:42;28.50;99.90
4964;DHT22;2497;47.410;9.740;2023-07-22T11:44:11;28.70;99.90
4964;DHT22;2497;47.410;9.740;2023-07-22T11:46:47;28.30;99.90
4964;DHT22;2497;47.410;9.740;2023-07-22T11:49:27;28.00;99.90
4964;DHT22;2497;47.410;9.740;2023-07-22T11:51:55;27.70;99.90
4964;DHT22;2497;47.410;9.740;2023-07-22T11:54:22;27.00;99.90
4964;DHT22;2497;47.410;9.740;2023-07-22T11:56:50;26.30;99.90
4964;DHT22;2497;47.410;9.740;2023-07-22T11:59:17;26.40;99.90
4964;DHT22;2497;47.410;9.740;2023-07-22T12:01:45;27.00;99.90
4964;DHT22;2497;47.410;9.740;2023-07-22T12:04:13;27.40;99.90
4964;DHT22;2497;47.410;9.740;2023-07-22T12:06:44;27.20;99.90
4964;DHT22;2497;47.410;9.740;2023-07-22T12:09:11;27.40;99.90
4964;DHT22;2497;47.410;9.740;2023-07-22T12:11:38;27.70;99.90
4964;DHT22;2497;47.410;9.740;2023-07-22T12:14:08;27.30;99.90
4964;DHT22;2497;47.410;9.740;2023-07-22T12:16:37;27.70;99.90
4964;DHT22;2497;47.410;9.740;2023-07-22T12:19:05;27.60;99.90
4964;DHT22;2497;47.410;9.740;2023-07-22T12:21:32;27.10;99.90
4964;DHT22;2497;47.410;9.740;2023-07-22T12:24:01;27.00;99.90
4964;DHT22;2497;47.410;9.740;2023-07-22T12:26:30;27.10;99.90
4964;DHT22;2497;47.410;9.740;2023-07-22T12:28:57;26.90;99.90
4964;DHT22;2497;47.410;9.740;2023-07-22T12:31:25;26.90;99.90
4964;DHT22;2497;47.410;9.740;2023-07-22T12:33:52;27.00;99.90
4964;DHT22;2497;47.410;9.740;2023-07-22T12:36:19;26.80;99.90
4964;DHT22;2497;47.410;9.740;2023-07-22T12:38:46;26.90;99.90
4964;DHT22;2497;47.410;9.740;2023-07-22T12:41:14;27.00;99.90
4964;DHT22;2497;47.410;9.740;2023-07-22T12:43:41;26.80;99.90
4964;DHT22;2497;47.410;9.740;2023-07-22T12:46:08;26.30;99.90
4964;DHT22;2497;47.410;9.740;2023-07-22T12:48:35;26.10;99.90
4964;DHT22;2497;47.410;9.740;2023-07-22T12:51:02;25.60;99.90
4964;DHT22;2497;47.410;9.740;2023-07-22T12:53:29;25.70;99.90
4964;DHT22;2497;47.410;9.740;2023-07-22T12:55:56;25.90;99.90
4964;DHT22;2497;47.410;9.740;2023-07-22T12:58:25;26.20;99.90
4964;DHT22;2497;47.410;9.740;2023-07-22T13:00:52;26.40;99.90
4964;DHT22;2497;47.410;9.740;2023-07-22T13:03:20;26.50;99.90
4964;DHT22;2497;47.410;9.740;2023-07-22T13:05:50;26.50;99.90
4964;DHT22;2497;47.410;9.740;2023-07-22T13:08:17;26.80;99.90
4964;DHT22;2497;47.410;9.740;2023-07-22T13:10:44;26.90;99.90
4964;DHT22;2497;47.410;9.740;2023-07-22T13:13:12;26.50;99.90
4964;DHT22;2497;47.410;9.740;2023-07-22T13:15:44;26.50;99.90
4964;DHT22;2497;47.410;9.740;2023-07-22T13:18:11;26.40;99.90
4964;DHT22;2497;47.410;9.740;2023-07-22T13:20:39;26.30;99.90
4964;DHT22;2497;47.410;9.740;2023-07-22T13:23:06;26.10;99.90
4964;DHT22;2497;47.410;9.740;2023-07-22T13:25:33;26.10;99.90
4964;DHT22;2497;47.410;9.740;2023-07-22T13:28:00;26.10;99.90
4964;DHT22;2497;47.410;9.740;2023-07-22T13:30:30;26.00;99.90
4964;DHT22;2497;47.410;9.740;2023-07-22T13:32:59;25.90;99.90
4964;DHT22;2497;47.410;9.740;2023-07-22T13:35:26;26.10;99.90
4964;DHT22;2497;47.410;9.740;2023-07-22T13:37:56;26.00;99.90
4964;DHT22;2497;47.410;9.740;2023-07-22T13:40:23;26.10;99.90
4964;DHT22;2497;47.410;9.740;2023-07-22T13:42:52;26.20;99.90
4964;DHT22;2497;47.410;9.740;2023-07-22T13:45:20;26.20;99.90
4964;DHT22;2497;47.410;9.740;2023-07-22T13:47:47;26.40;99.90
4964;DHT22;2497;47.410;9.740;2023-07-22T13:50:21;26.40;99.90
4964;DHT22;2497;47.410;9.740;2023-07-22T13:52:49;26.30;99.90
4964;DHT22;2497;47.410;9.740;2023-07-22T13:55:16;26.30;99.90
4964;DHT22;2497;47.410;9.740;2023-07-22T13:57:43;26.40;99.90
4964;DHT22;2497;47.410;9.740;2023-07-22T14:00:11;26.20;99.90
4964;DHT22;2497;47.410;9.740;2023-07-22T14:02:40;26.10;99.90
4964;DHT22;2497;47.410;9.740;2023-07-22T14:05:08;26.40;99.90
4964;DHT22;2497;47.410;9.740;2023-07-22T14:07:38;26.40;99.90
4964;DHT22;2497;47.410;9.740;2023-07-22T14:10:06;26.50;99.90
4964;DHT22;2497;47.410;9.740;2023-07-22T14:12:34;26.70;99.90
4964;DHT22;2497;47.410;9.740;2023-07-22T14:15:02;26.60;99.90
4964;DHT22;2497;47.410;9.740;2023-07-22T14:17:31;26.40;99.90
4964;DHT22;2497;47.410;9.740;2023-07-22T14:19:59;26.20;99.90
4964;DHT22;2497;47.410;9.740;2023-07-22T14:22:26;26.60;99.90
4964;DHT22;2497;47.410;9.740;2023-07-22T14:24:54;26.40;99.90
4964;DHT22;2497;47.410;9.740;2023-07-22T14:27:21;26.40;99.90
4964;DHT22;2497;47.410;9.740;2023-07-22T14:29:49;26.80;99.90
4964;DHT22;2497;47.410;9.740;2023-07-22T14:32:16;27.10;99.90
4964;DHT22;2497;47.410;9.740;2023-07-22T14:34:44;26.90;99.90
4964;DHT22;2497;47.410;9.740;2023-07-22T14:37:12;27.00;99.90
4964;DHT22;2497;47.410;9.740;2023-07-22T14:39:40;27.00;99.90
4964;DHT22;2497;47.410;9.740;2023-07-22T14:42:12;26.70;99.90
4964;DHT22;2497;47.410;9.740;2023-07-22T14:44:39;26.30;99.90
4964;DHT22;2497;47.410;9.740;2023-07-22T14:47:07;26.10;99.90
4964;DHT22;2497;47.410;9.740;2023-07-22T14:49:34;26.00;99.90
4964;DHT22;2497;47.410;9.740;2023-07-22T14:52:02;26.10;99.90
4964;DHT22;2497;47.410;9.740;2023-07-22T14:54:29;26.20;99.90
4964;DHT22;2497;47.410;9.740;2023-07-22T14:56:57;26.50;99.90
4964;DHT22;2497;47.410;9.740;2023-07-22T14:59:27;26.10;99.90
4964;DHT22;2497;47.410;9.740;2023-07-22T15:01:55;26.10;99.90
4964;DHT22;2497;47.410;9.740;2023-07-22T15:04:25;25.80;99.90
4964;DHT22;2497;47.410;9.740;2023-07-22T15:06:52;25.50;99.90
4964;DHT22;2497;47.410;9.740;2023-07-22T15:09:19;25.40;99.90
4964;DHT22;2497;47.410;9.740;2023-07-22T15:11:49;25.30;99.90
4964;DHT22;2497;47.410;9.740;2023-07-22T15:14:16;25.20;99.90
4964;DHT22;2497;47.410;9.740;2023-07-22T15:16:45;25.20;99.90
4964;DHT22;2497;47.410;9.740;2023-07-22T15:19:12;25.00;99.90
4964;DHT22;2497;47.410;9.740;2023-07-22T15:21:39;25.00;99.90
4964;DHT22;2497;47.410;9.740;2023-07-22T15:24:06;24.80;99.90
4964;DHT22;2497;47.410;9.740;2023-07-22T15:26:33;24.80;99.90
4964;DHT22;2497;47.410;9.740;2023-07-22T15:29:00;24.70;99.90
4964;DHT22;2497;47.410;9.740;2023-07-22T15:31:27;24.70;99.90
4964;DHT22;2497;47.410;9.740;2023-07-22T15:33:56;24.60;99.90
4964;DHT22;2497;47.410;9.740;2023-07-22T15:36:23;24.60;99.90
4964;DHT22;2497;47.410;9.740;2023-07-22T15:38:50;24.60;99.90
4964;DHT22;2497;47.410;9.740;2023-07-22T15:41:17;24.50;99.90
4964;DHT22;2497;47.410;9.740;2023-07-22T15:43:44;24.50;99.90
4964;DHT22;2497;47.410;9.740;2023-07-22T15:46:11;24.40;99.90
4964;DHT22;2497;47.410;9.740;2023-07-22T15:48:38;24.30;99.90
4964;DHT22;2497;47.410;9.740;2023-07-22T15:51:07;24.50;99.90
4964;DHT22;2497;47.410;9.740;2023-07-22T15:53:34;24.50;99.90
4964;DHT22;2497;47.410;9.740;2023-07-22T15:56:01;24.20;99.90
4964;DHT22;2497;47.410;9.740;2023-07-22T15:58:30;24.20;99.90
4964;DHT22;2497;47.410;9.740;2023-07-22T16:00:57;24.30;99.90
4964;DHT22;2497;47.410;9.740;2023-07-22T16:03:26;24.20;99.90
4964;DHT22;2497;47.410;9.740;2023-07-22T16:05:53;24.10;99.90
4964;DHT22;2497;47.410;9.740;2023-07-22T16:08:22;24.20;99.90